sensor_id;sensor_type;location;lat;lon;timestamp;pressure;altitude;pressure_sealevel;temperature;humidity
9855;BME280;4966;48.112;9.282;2023-03-11T00:01:47;93592.44;;;3.15;65.18
9855;BME280;4966;48.112;9.282;2023-03-11T00:04:13;93578.06;;;2.85;65.16
9855;BME280;4966;48.112;9.282;2023-03-11T00:06:38;93573.81;;;2.84;65.41
9855;BME280;4966;48.112;9.282;2023-03-11T00:09:04;93579.00;;;3.15;65.29
9855;BME280;4966;48.112;9.282;2023-03-11T00:11:29;93569.81;;;3.16;65.41
9855;BME280;4966;48.112;9.282;2023-03-11T00:13:54;93574.28;;;3.12;65.06
9855;BME280;4966;48.112;9.282;2023-03-11T00:16:20;93576.09;;;3.46;64.97
9855;BME280;4966;48.112;9.282;2023-03-11T00:18:49;93582.44;;;3.41;64.92
9855;BME280;4966;48.112;9.282;2023-03-11T00:21:16;93592.22;;;3.46;64.50
9855;BME280;4966;48.112;9.282;2023-03-11T00:23:41;93597.31;;;3.39;64.73
9855;BME280;4966;48.112;9.282;2023-03-11T00:26:07;93596.69;;;3.25;64.61
9855;BME280;4966;48.112;9.282;2023-03-11T00:28:32;93597.81;;;3.24;64.50
9855;BME280;4966;48.112;9.282;2023-03-11T00:30:58;93612.81;;;3.25;64.11
9855;BME280;4966;48.112;9.282;2023-03-11T00:33:23;93617.44;;;3.07;65.01
9855;BME280;4966;48.112;9.282;2023-03-11T00:35:49;93613.91;;;2.54;64.93
9855;BME280;4966;48.112;9.282;2023-03-11T00:38:15;93620.09;;;2.81;64.74
9855;BME280;4966;48.112;9.282;2023-03-11T00:40:41;93614.41;;;2.82;64.11
9855;BME280;4966;48.112;9.282;2023-03-11T00:43:07;93619.94;;;3.20;63.00
9855;BME280;4966;48.112;9.282;2023-03-11T00:45:33;93620.91;;;2.90;64.17
9855;BME280;4966;48.112;9.282;2023-03-11T00:47:58;93616.13;;;2.69;63.20
9855;BME280;4966;48.112;9.282;2023-03-11T00:50:27;93606.84;;;2.93;63.78
9855;BME280;4966;48.112;9.282;2023-03-11T00:52:52;93596.56;;;3.21;62.95
9855;BME280;4966;48.112;9.282;2023-03-11T00:55:21;93602.88;;;2.64;63.51
9855;BME280;4966;48.112;9.282;2023-03-11T00:57:50;93610.13;;;2.64;62.98
9855;BME280;4966;48.112;9.282;2023-03-11T01:00:18;93624.38;;;3.16;61.69
9855;BME280;4966;48.112;9.282;2023-03-11T01:02:44;93624.16;;;2.61;62.32
9855;BME280;4966;48.112;9.282;2023-03-11T01:05:10;93612.84;;;2.90;63.17
9855;BME280;4966;48.112;9.282;2023-03-11T01:07:35;93614.56;;;3.20;62.50
9855;BME280;4966;48.112;9.282;2023-03-11T01:10:01;93604.75;;;2.72;62.88
9855;BME280;4966;48.112;9.282;2023-03-11T01:12:27;93605.56;;;2.82;63.63
9855;BME280;4966;48.112;9.282;2023-03-11T01:14:53;93603.97;;;3.15;62.84
9855;BME280;4966;48.112;9.282;2023-03-11T01:17:18;93589.59;;;2.76;62.11
9855;BME280;4966;48.112;9.282;2023-03-11T01:19:46;93599.56;;;2.76;63.10
9855;BME280;4966;48.112;9.282;2023-03-11T01:22:12;93591.28;;;2.38;64.18
9855;BME280;4966;48.112;9.282;2023-03-11T01:24:37;93586.13;;;2.67;63.29
9855;BME280;4966;48.112;9.282;2023-03-11T01:27:02;93588.16;;;2.53;62.89
9855;BME280;4966;48.112;9.282;2023-03-11T01:29:28;93573.13;;;2.34;63.44
9855;BME280;4966;48.112;9.282;2023-03-11T01:31:53;93569.50;;;2.39;63.29
9855;BME280;4966;48.112;9.282;2023-03-11T01:34:18;93588.81;;;2.59;63.34
9855;BME280;4966;48.112;9.282;2023-03-11T01:36:44;93583.72;;;2.66;63.40
9855;BME280;4966;48.112;9.282;2023-03-11T01:39:10;93607.69;;;2.36;64.63
9855;BME280;4966;48.112;9.282;2023-03-11T01:41:35;93609.97;;;2.77;62.85
9855;BME280;4966;48.112;9.282;2023-03-11T01:44:00;93615.63;;;2.50;62.84
9855;BME280;4966;48.112;9.282;2023-03-11T01:46:31;93625.59;;;2.58;62.05
9855;BME280;4966;48.112;9.282;2023-03-11T01:49:01;93620.97;;;2.32;63.38
9855;BME280;4966;48.112;9.282;2023-03-11T01:51:41;93611.53;;;2.52;62.82
9855;BME280;4966;48.112;9.282;2023-03-11T01:54:23;93611.47;;;2.26;62.81
9855;BME280;4966;48.112;9.282;2023-03-11T01:56:50;93604.88;;;2.32;62.27
9855;BME280;4966;48.112;9.282;2023-03-11T01:59:20;93599.56;;;2.10;62.14
9855;BME280;4966;48.112;9.282;2023-03-11T02:04:22;93608.53;;;1.97;62.95
9855;BME280;4966;48.112;9.282;2023-03-11T02:06:47;93600.91;;;2.39;61.56
9855;BME280;4966;48.112;9.282;2023-03-11T02:09:13;93607.06;;;2.39;61.38
9855;BME280;4966;48.112;9.282;2023-03-11T02:11:39;93603.19;;;2.05;61.74
9855;BME280;4966;48.112;9.282;2023-03-11T02:14:05;93599.75;;;2.22;61.08
9855;BME280;4966;48.112;9.282;2023-03-11T02:16:33;93593.59;;;2.13;60.60
9855;BME280;4966;48.112;9.282;2023-03-11T02:19:04;93601.28;;;2.72;61.16
9855;BME280;4966;48.112;9.282;2023-03-11T02:21:34;93601.56;;;2.36;60.84
9855;BME280;4966;48.112;9.282;2023-03-11T02:24:20;93587.16;;;2.23;60.95
9855;BME280;4966;48.112;9.282;2023-03-11T02:27:06;93605.47;;;2.29;60.35
9855;BME280;4966;48.112;9.282;2023-03-11T02:29:33;93596.69;;;2.55;59.93
9855;BME280;4966;48.112;9.282;2023-03-11T02:32:04;93599.06;;;2.65;59.38
9855;BME280;4966;48.112;9.282;2023-03-11T02:34:32;93606.94;;;2.53;60.04
9855;BME280;4966;48.112;9.282;2023-03-11T02:36:58;93617.31;;;2.28;59.69
9855;BME280;4966;48.112;9.282;2023-03-11T02:39:34;93626.81;;;1.95;60.14
9855;BME280;4966;48.112;9.282;2023-03-11T02:42:03;93618.09;;;1.80;59.93
9855;BME280;4966;48.112;9.282;2023-03-11T02:44:29;93617.50;;;1.92;60.65
9855;BME280;4966;48.112;9.282;2023-03-11T02:46:55;93626.91;;;1.49;61.00
9855;BME280;4966;48.112;9.282;2023-03-11T02:49:21;93627.41;;;1.52;61.23
9855;BME280;4966;48.112;9.282;2023-03-11T02:51:47;93635.88;;;1.76;61.41
9855;BME280;4966;48.112;9.282;2023-03-11T02:54:12;93628.50;;;2.22;60.72
9855;BME280;4966;48.112;9.282;2023-03-11T02:56:37;93624.03;;;1.68;60.71
9855;BME280;4966;48.112;9.282;2023-03-11T02:59:03;93625.72;;;1.64;61.08
9855;BME280;4966;48.112;9.282;2023-03-11T03:01:29;93621.72;;;1.53;61.31
9855;BME280;4966;48.112;9.282;2023-03-11T03:03:54;93630.19;;;2.09;60.53
9855;BME280;4966;48.112;9.282;2023-03-11T03:06:20;93622.44;;;1.67;62.51
9855;BME280;4966;48.112;9.282;2023-03-11T03:08:45;93644.41;;;1.78;60.96
9855;BME280;4966;48.112;9.282;2023-03-11T03:11:10;93637.38;;;1.60;61.89
9855;BME280;4966;48.112;9.282;2023-03-11T03:13:36;93646.28;;;2.09;61.02
9855;BME280;4966;48.112;9.282;2023-03-11T03:16:01;93656.56;;;1.84;60.92
9855;BME280;4966;48.112;9.282;2023-03-11T03:18:27;93658.16;;;2.17;59.84
9855;BME280;4966;48.112;9.282;2023-03-11T03:20:52;93648.28;;;1.63;60.01
9855;BME280;4966;48.112;9.282;2023-03-11T03:23:18;93640.94;;;1.78;59.85
9855;BME280;4966;48.112;9.282;2023-03-11T03:25:44;93640.78;;;2.14;59.13
9855;BME280;4966;48.112;9.282;2023-03-11T03:28:13;93631.91;;;2.05;59.16
9855;BME280;4966;48.112;9.282;2023-03-11T03:30:39;93629.63;;;2.29;59.63
9855;BME280;4966;48.112;9.282;2023-03-11T03:33:05;93641.81;;;2.36;59.68
9855;BME280;4966;48.112;9.282;2023-03-11T03:35:31;93671.75;;;1.89;59.65
9855;BME280;4966;48.112;9.282;2023-03-11T03:37:57;93659.16;;;1.98;59.64
9855;BME280;4966;48.112;9.282;2023-03-11T03:40:23;93644.50;;;1.96;59.25
9855;BME280;4966;48.112;9.282;2023-03-11T03:42:48;93647.53;;;2.03;59.58
9855;BME280;4966;48.112;9.282;2023-03-11T03:45:13;93619.66;;;2.21;59.46
9855;BME280;4966;48.112;9.282;2023-03-11T03:47:39;93615.41;;;2.29;59.46
9855;BME280;4966;48.112;9.282;2023-03-11T03:50:06;93641.66;;;2.01;60.20
9855;BME280;4966;48.112;9.282;2023-03-11T03:52:34;93640.47;;;1.84;60.20
9855;BME280;4966;48.112;9.282;2023-03-11T03:54:59;93655.34;;;1.90;60.26
9855;BME280;4966;48.112;9.282;2023-03-11T03:57:25;93649.00;;;1.78;60.38
9855;BME280;4966;48.112;9.282;2023-03-11T03:59:50;93639.97;;;1.74;61.37
9855;BME280;4966;48.112;9.282;2023-03-11T04:02:15;93657.56;;;1.88;60.98
9855;BME280;4966;48.112;9.282;2023-03-11T04:04:41;93669.88;;;1.89;61.17
9855;BME280;4966;48.112;9.282;2023-03-11T04:07:06;93662.47;;;1.95;61.11
9855;BME280;4966;48.112;9.282;2023-03-11T04:09:32;93676.31;;;2.20;60.57
9855;BME280;4966;48.112;9.282;2023-03-11T04:11:58;93681.16;;;2.09;60.47
9855;BME280;4966;48.112;9.282;2023-03-11T04:14:26;93691.03;;;2.31;60.43
9855;BME280;4966;48.112;9.282;2023-03-11T04:16:52;93693.91;;;2.03;60.53
9855;BME280;4966;48.112;9.282;2023-03-11T04:19:17;93696.22;;;1.87;59.01
9855;BME280;4966;48.112;9.282;2023-03-11T04:21:42;93689.91;;;1.61;58.16
9855;BME280;4966;48.112;9.282;2023-03-11T04:24:08;93692.38;;;1.57;58.77
9855;BME280;4966;48.112;9.282;2023-03-11T04:26:33;93678.94;;;1.48;59.24
9855;BME280;4966;48.112;9.282;2023-03-11T04:28:59;93680.25;;;1.60;58.55
9855;BME280;4966;48.112;9.282;2023-03-11T04:31:24;93680.25;;;1.60;57.84
9855;BME280;4966;48.112;9.282;2023-03-11T04:33:50;93681.63;;;1.48;58.54
9855;BME280;4966;48.112;9.282;2023-03-11T04:36:15;93676.75;;;1.28;58.84
9855;BME280;4966;48.112;9.282;2023-03-11T04:38:40;93679.63;;;0.95;59.43
9855;BME280;4966;48.112;9.282;2023-03-11T04:41:06;93673.75;;;0.93;60.15
9855;BME280;4966;48.112;9.282;2023-03-11T04:43:32;93668.13;;;1.17;60.09
9855;BME280;4966;48.112;9.282;2023-03-11T04:45:58;93674.50;;;0.71;59.73
9855;BME280;4966;48.112;9.282;2023-03-11T04:48:23;93685.75;;;0.96;59.26
9855;BME280;4966;48.112;9.282;2023-03-11T04:50:51;93679.56;;;1.09;58.75
9855;BME280;4966;48.112;9.282;2023-03-11T04:53:16;93681.78;;;0.93;58.93
9855;BME280;4966;48.112;9.282;2023-03-11T04:55:42;93686.50;;;1.10;58.33
9855;BME280;4966;48.112;9.282;2023-03-11T04:58:08;93689.69;;;1.12;59.26
9855;BME280;4966;48.112;9.282;2023-03-11T05:00:33;93689.78;;;0.84;58.93
9855;BME280;4966;48.112;9.282;2023-03-11T05:02:58;93694.63;;;0.82;59.19
9855;BME280;4966;48.112;9.282;2023-03-11T05:05:24;93704.94;;;0.89;59.85
9855;BME280;4966;48.112;9.282;2023-03-11T05:07:49;93709.72;;;0.64;60.10
9855;BME280;4966;48.112;9.282;2023-03-11T05:10:15;93706.84;;;0.61;59.95
9855;BME280;4966;48.112;9.282;2023-03-11T05:12:47;93706.34;;;0.45;60.51
9855;BME280;4966;48.112;9.282;2023-03-11T05:15:12;93705.97;;;0.52;61.23
9855;BME280;4966;48.112;9.282;2023-03-11T05:17:37;93700.81;;;0.41;61.00
9855;BME280;4966;48.112;9.282;2023-03-11T05:20:03;93707.47;;;0.58;60.89
9855;BME280;4966;48.112;9.282;2023-03-11T05:22:31;93712.59;;;0.54;60.78
9855;BME280;4966;48.112;9.282;2023-03-11T05:24:57;93712.59;;;0.54;61.13
9855;BME280;4966;48.112;9.282;2023-03-11T05:27:22;93721.34;;;0.60;60.32
9855;BME280;4966;48.112;9.282;2023-03-11T05:29:47;93711.19;;;0.71;61.28
9855;BME280;4966;48.112;9.282;2023-03-11T05:32:13;93726.75;;;0.55;61.21
9855;BME280;4966;48.112;9.282;2023-03-11T05:34:38;93734.00;;;0.54;61.28
9855;BME280;4966;48.112;9.282;2023-03-11T05:37:04;93732.94;;;0.55;61.17
9855;BME280;4966;48.112;9.282;2023-03-11T05:39:29;93733.63;;;0.75;61.38
9855;BME280;4966;48.112;9.282;2023-03-11T05:41:54;93738.38;;;0.64;61.14
9855;BME280;4966;48.112;9.282;2023-03-11T05:44:21;93744.50;;;0.64;61.20
9855;BME280;4966;48.112;9.282;2023-03-11T05:46:47;93725.31;;;0.49;61.78
9855;BME280;4966;48.112;9.282;2023-03-11T05:49:13;93716.56;;;0.43;62.08
9855;BME280;4966;48.112;9.282;2023-03-11T05:51:38;93713.41;;;0.27;62.32
9855;BME280;4966;48.112;9.282;2023-03-11T05:54:04;93717.84;;;0.18;62.87
9855;BME280;4966;48.112;9.282;2023-03-11T05:56:35;93710.72;;;0.13;63.48
9855;BME280;4966;48.112;9.282;2023-03-11T05:59:01;93714.00;;;0.24;63.62
9855;BME280;4966;48.112;9.282;2023-03-11T06:01:26;93709.03;;;0.45;62.30
9855;BME280;4966;48.112;9.282;2023-03-11T06:03:52;93718.56;;;0.51;62.64
9855;BME280;4966;48.112;9.282;2023-03-11T06:06:17;93708.53;;;0.57;62.60
9855;BME280;4966;48.112;9.282;2023-03-11T06:08:42;93724.41;;;0.39;63.70
9855;BME280;4966;48.112;9.282;2023-03-11T06:11:13;93729.97;;;0.29;65.00
9855;BME280;4966;48.112;9.282;2023-03-11T06:13:39;93732.22;;;0.36;65.20
9855;BME280;4966;48.112;9.282;2023-03-11T06:16:05;93740.44;;;0.39;65.15
9855;BME280;4966;48.112;9.282;2023-03-11T06:18:31;93740.25;;;0.50;65.09
9855;BME280;4966;48.112;9.282;2023-03-11T06:20:57;93738.06;;;0.52;65.27
9855;BME280;4966;48.112;9.282;2023-03-11T06:23:23;93736.69;;;0.82;63.85
9855;BME280;4966;48.112;9.282;2023-03-11T06:26:00;93734.06;;;0.91;62.71
9855;BME280;4966;48.112;9.282;2023-03-11T06:28:26;93735.50;;;0.74;63.75
9855;BME280;4966;48.112;9.282;2023-03-11T06:30:52;93742.53;;;0.56;64.63
9855;BME280;4966;48.112;9.282;2023-03-11T06:33:22;93763.75;;;0.67;63.30
9855;BME280;4966;48.112;9.282;2023-03-11T06:35:58;93761.75;;;0.58;61.99
9855;BME280;4966;48.112;9.282;2023-03-11T06:38:23;93766.81;;;0.74;62.80
9855;BME280;4966;48.112;9.282;2023-03-11T06:40:49;93785.25;;;0.89;63.55
9855;BME280;4966;48.112;9.282;2023-03-11T06:43:14;93769.16;;;1.03;62.20
9855;BME280;4966;48.112;9.282;2023-03-11T06:45:39;93767.72;;;1.33;61.61
9855;BME280;4966;48.112;9.282;2023-03-11T06:48:05;93762.56;;;1.37;60.99
9855;BME280;4966;48.112;9.282;2023-03-11T06:50:30;93761.38;;;1.65;60.13
9855;BME280;4966;48.112;9.282;2023-03-11T06:52:56;93765.16;;;1.51;60.07
9855;BME280;4966;48.112;9.282;2023-03-11T06:55:21;93766.06;;;1.10;59.25
9855;BME280;4966;48.112;9.282;2023-03-11T06:57:47;93772.47;;;1.36;58.48
9855;BME280;4966;48.112;9.282;2023-03-11T07:00:13;93779.84;;;1.53;58.10
9855;BME280;4966;48.112;9.282;2023-03-11T07:02:39;93786.94;;;1.49;57.63
9855;BME280;4966;48.112;9.282;2023-03-11T07:05:04;93797.50;;;1.68;58.42
9855;BME280;4966;48.112;9.282;2023-03-11T07:07:30;93786.50;;;2.01;56.59
9855;BME280;4966;48.112;9.282;2023-03-11T07:09:55;93788.34;;;1.91;56.98
9855;BME280;4966;48.112;9.282;2023-03-11T07:12:22;93805.59;;;1.77;57.31
9855;BME280;4966;48.112;9.282;2023-03-11T07:14:53;93811.03;;;2.08;56.48
9855;BME280;4966;48.112;9.282;2023-03-11T07:17:19;93811.16;;;2.03;56.54
9855;BME280;4966;48.112;9.282;2023-03-11T07:19:44;93814.00;;;1.84;56.13
9855;BME280;4966;48.112;9.282;2023-03-11T07:22:09;93807.34;;;1.59;57.37
9855;BME280;4966;48.112;9.282;2023-03-11T07:24:35;93808.81;;;1.65;56.91
9855;BME280;4966;48.112;9.282;2023-03-11T07:27:00;93799.06;;;1.69;57.31
9855;BME280;4966;48.112;9.282;2023-03-11T07:29:25;93799.34;;;2.04;57.04
9855;BME280;4966;48.112;9.282;2023-03-11T07:31:51;93806.16;;;1.87;56.16
9855;BME280;4966;48.112;9.282;2023-03-11T07:34:16;93807.97;;;1.78;57.28
9855;BME280;4966;48.112;9.282;2023-03-11T07:36:42;93826.50;;;1.88;57.06
9855;BME280;4966;48.112;9.282;2023-03-11T07:39:12;93823.13;;;1.60;56.49
9855;BME280;4966;48.112;9.282;2023-03-11T07:41:37;93822.72;;;1.53;56.83
9855;BME280;4966;48.112;9.282;2023-03-11T07:44:03;93824.31;;;1.68;56.42
9855;BME280;4966;48.112;9.282;2023-03-11T07:46:30;93832.81;;;2.06;55.73
9855;BME280;4966;48.112;9.282;2023-03-11T07:48:55;93818.50;;;2.20;54.85
9855;BME280;4966;48.112;9.282;2023-03-11T07:51:23;93828.81;;;1.81;54.91
9855;BME280;4966;48.112;9.282;2023-03-11T07:53:51;93824.31;;;1.90;55.94
9855;BME280;4966;48.112;9.282;2023-03-11T07:56:17;93831.94;;;1.97;55.04
9855;BME280;4966;48.112;9.282;2023-03-11T07:58:43;93826.56;;;1.97;55.31
9855;BME280;4966;48.112;9.282;2023-03-11T08:01:12;93827.25;;;2.25;55.51
9855;BME280;4966;48.112;9.282;2023-03-11T08:03:39;93833.22;;;2.22;54.63
9855;BME280;4966;48.112;9.282;2023-03-11T08:06:18;93834.44;;;2.16;55.23
9855;BME280;4966;48.112;9.282;2023-03-11T08:08:44;93843.22;;;2.30;54.60
9855;BME280;4966;48.112;9.282;2023-03-11T08:11:11;93843.25;;;2.62;54.47
9855;BME280;4966;48.112;9.282;2023-03-11T08:13:38;93847.22;;;2.73;53.44
9855;BME280;4966;48.112;9.282;2023-03-11T08:16:05;93848.16;;;2.37;54.08
9855;BME280;4966;48.112;9.282;2023-03-11T08:18:31;93853.41;;;2.73;54.16
9855;BME280;4966;48.112;9.282;2023-03-11T08:20:57;93842.06;;;3.25;52.26
9855;BME280;4966;48.112;9.282;2023-03-11T08:23:22;93842.59;;;2.96;52.71
9855;BME280;4966;48.112;9.282;2023-03-11T08:25:48;93841.13;;;3.21;52.76
9855;BME280;4966;48.112;9.282;2023-03-11T08:28:13;93842.53;;;2.79;53.68
9855;BME280;4966;48.112;9.282;2023-03-11T08:30:38;93845.22;;;2.79;53.35
9855;BME280;4966;48.112;9.282;2023-03-11T08:33:04;93845.41;;;3.31;52.54
9855;BME280;4966;48.112;9.282;2023-03-11T08:35:30;93849.88;;;3.53;50.36
9855;BME280;4966;48.112;9.282;2023-03-11T08:37:55;93862.47;;;3.26;49.67
9855;BME280;4966;48.112;9.282;2023-03-11T08:40:21;93864.31;;;3.74;49.21
9855;BME280;4966;48.112;9.282;2023-03-11T08:42:46;93861.59;;;3.57;48.56
9855;BME280;4966;48.112;9.282;2023-03-11T08:45:11;93858.38;;;3.37;47.81
9855;BME280;4966;48.112;9.282;2023-03-11T08:47:37;93868.44;;;3.14;47.83
9855;BME280;4966;48.112;9.282;2023-03-11T08:50:14;93865.22;;;3.61;47.60
9855;BME280;4966;48.112;9.282;2023-03-11T08:52:39;93857.50;;;3.77;47.54
9855;BME280;4966;48.112;9.282;2023-03-11T08:55:05;93860.06;;;3.91;47.10
9855;BME280;4966;48.112;9.282;2023-03-11T08:57:33;93867.00;;;3.92;46.96
9855;BME280;4966;48.112;9.282;2023-03-11T08:59:58;93874.47;;;3.86;47.30
9855;BME280;4966;48.112;9.282;2023-03-11T09:02:24;93881.09;;;3.23;44.56
9855;BME280;4966;48.112;9.282;2023-03-11T09:04:50;93874.00;;;3.27;45.13
9855;BME280;4966;48.112;9.282;2023-03-11T09:07:15;93880.34;;;2.91;46.00
9855;BME280;4966;48.112;9.282;2023-03-11T09:09:41;93877.47;;;3.18;46.58
9855;BME280;4966;48.112;9.282;2023-03-11T09:12:07;93871.72;;;3.03;48.88
9855;BME280;4966;48.112;9.282;2023-03-11T09:14:32;93873.47;;;3.07;47.97
9855;BME280;4966;48.112;9.282;2023-03-11T09:16:59;93877.00;;;2.85;47.43
9855;BME280;4966;48.112;9.282;2023-03-11T09:19:24;93863.06;;;3.14;47.32
9855;BME280;4966;48.112;9.282;2023-03-11T09:21:50;93865.91;;;3.09;46.81
9855;BME280;4966;48.112;9.282;2023-03-11T09:24:15;93862.75;;;2.85;46.85
9855;BME280;4966;48.112;9.282;2023-03-11T09:26:40;93866.84;;;3.13;46.61
9855;BME280;4966;48.112;9.282;2023-03-11T09:29:06;93874.50;;;2.89;46.15
9855;BME280;4966;48.112;9.282;2023-03-11T09:31:31;93884.69;;;3.09;45.85
9855;BME280;4966;48.112;9.282;2023-03-11T09:33:56;93872.97;;;3.45;46.04
9855;BME280;4966;48.112;9.282;2023-03-11T09:36:22;93882.50;;;2.80;46.83
9855;BME280;4966;48.112;9.282;2023-03-11T09:38:48;93882.63;;;3.06;45.57
9855;BME280;4966;48.112;9.282;2023-03-11T09:46:59;93891.94;;;3.00;44.91
9855;BME280;4966;48.112;9.282;2023-03-11T09:50:02;93892.53;;;3.28;43.45
9855;BME280;4966;48.112;9.282;2023-03-11T09:58:01;93890.53;;;3.51;45.40
9855;BME280;4966;48.112;9.282;2023-03-11T10:00:27;93888.47;;;3.48;44.40
9855;BME280;4966;48.112;9.282;2023-03-11T10:02:53;93892.28;;;3.56;43.75
9855;BME280;4966;48.112;9.282;2023-03-11T10:05:22;93901.78;;;3.71;42.52
9855;BME280;4966;48.112;9.282;2023-03-11T10:07:59;93914.72;;;3.51;42.30
9855;BME280;4966;48.112;9.282;2023-03-11T10:10:29;93925.25;;;3.79;44.06
9855;BME280;4966;48.112;9.282;2023-03-11T10:15:51;93898.53;;;4.00;43.09
9855;BME280;4966;48.112;9.282;2023-03-11T10:18:38;93901.38;;;4.30;45.68
9855;BME280;4966;48.112;9.282;2023-03-11T10:21:23;93899.63;;;4.60;43.12
9855;BME280;4966;48.112;9.282;2023-03-11T10:26:45;93908.34;;;4.13;42.54
9855;BME280;4966;48.112;9.282;2023-03-11T10:34:12;93903.78;;;4.31;42.60
9855;BME280;4966;48.112;9.282;2023-03-11T10:37:01;93885.47;;;4.72;44.08
9855;BME280;4966;48.112;9.282;2023-03-11T10:39:30;93886.47;;;4.67;43.16
9855;BME280;4966;48.112;9.282;2023-03-11T10:41:59;93888.97;;;4.81;41.22
9855;BME280;4966;48.112;9.282;2023-03-11T10:44:38;93885.03;;;4.52;40.50
9855;BME280;4966;48.112;9.282;2023-03-11T10:47:05;93879.03;;;4.46;38.33
9855;BME280;4966;48.112;9.282;2023-03-11T10:49:31;93885.47;;;4.72;38.63
9855;BME280;4966;48.112;9.282;2023-03-11T10:51:56;93883.91;;;4.62;38.66
9855;BME280;4966;48.112;9.282;2023-03-11T10:56:56;93880.78;;;4.60;39.32
9855;BME280;4966;48.112;9.282;2023-03-11T11:02:16;93887.69;;;4.96;38.82
9855;BME280;4966;48.112;9.282;2023-03-11T11:04:42;93884.75;;;5.48;38.35
9855;BME280;4966;48.112;9.282;2023-03-11T11:07:29;93888.38;;;4.58;37.44
9855;BME280;4966;48.112;9.282;2023-03-11T11:10:25;93886.56;;;4.88;39.24
9855;BME280;4966;48.112;9.282;2023-03-11T11:15:38;93881.72;;;5.58;37.62
9855;BME280;4966;48.112;9.282;2023-03-11T11:18:21;93884.63;;;6.04;42.95
9855;BME280;4966;48.112;9.282;2023-03-11T11:23:30;93884.63;;;6.04;39.14
9855;BME280;4966;48.112;9.282;2023-03-11T11:25:58;93881.28;;;6.28;37.47
9855;BME280;4966;48.112;9.282;2023-03-11T11:28:24;93870.69;;;6.23;37.12
9855;BME280;4966;48.112;9.282;2023-03-11T11:30:54;93876.56;;;6.58;39.59
9855;BME280;4966;48.112;9.282;2023-03-11T11:35:52;93871.41;;;6.65;41.22
9855;BME280;4966;48.112;9.282;2023-03-11T11:38:21;93883.84;;;6.45;39.26
9855;BME280;4966;48.112;9.282;2023-03-11T11:40:48;93869.84;;;6.64;37.41
9855;BME280;4966;48.112;9.282;2023-03-11T11:43:17;93859.56;;;6.91;38.33
9855;BME280;4966;48.112;9.282;2023-03-11T11:45:48;93859.72;;;6.19;38.42
9855;BME280;4966;48.112;9.282;2023-03-11T11:48:43;93856.88;;;7.89;37.57
9855;BME280;4966;48.112;9.282;2023-03-11T11:51:23;93858.66;;;10.21;33.94
9855;BME280;4966;48.112;9.282;2023-03-11T11:56:36;93841.78;;;13.33;27.06
9855;BME280;4966;48.112;9.282;2023-03-11T11:59:01;93842.22;;;14.42;25.67
9855;BME280;4966;48.112;9.282;2023-03-11T12:01:41;93820.69;;;15.53;24.37
9855;BME280;4966;48.112;9.282;2023-03-11T12:12:44;93828.22;;;17.79;19.70
9855;BME280;4966;48.112;9.282;2023-03-11T12:15:19;93817.56;;;19.36;17.54
9855;BME280;4966;48.112;9.282;2023-03-11T12:17:47;93812.28;;;19.18;18.02
9855;BME280;4966;48.112;9.282;2023-03-11T12:20:54;93805.09;;;20.29;18.01
9855;BME280;4966;48.112;9.282;2023-03-11T12:31:11;93813.22;;;13.71;22.89
9855;BME280;4966;48.112;9.282;2023-03-11T12:33:47;93808.94;;;13.70;22.83
9855;BME280;4966;48.112;9.282;2023-03-11T12:36:21;93812.13;;;14.42;22.44
9855;BME280;4966;48.112;9.282;2023-03-11T12:38:48;93807.69;;;14.19;23.09
9855;BME280;4966;48.112;9.282;2023-03-11T12:41:28;93800.31;;;15.25;22.66
9855;BME280;4966;48.112;9.282;2023-03-11T12:43:58;93804.84;;;13.09;23.27
9855;BME280;4966;48.112;9.282;2023-03-11T12:49:35;93804.72;;;12.00;24.45
9855;BME280;4966;48.112;9.282;2023-03-11T12:54:46;93804.69;;;12.27;23.16
9855;BME280;4966;48.112;9.282;2023-03-11T13:10:40;93779.94;;;9.54;28.31
9855;BME280;4966;48.112;9.282;2023-03-11T13:15:46;93783.84;;;10.27;26.26
9855;BME280;4966;48.112;9.282;2023-03-11T13:23:35;93770.97;;;11.32;25.46
9855;BME280;4966;48.112;9.282;2023-03-11T13:26:18;93770.16;;;11.28;26.64
9855;BME280;4966;48.112;9.282;2023-03-11T13:40:37;93765.75;;;13.38;23.04
9855;BME280;4966;48.112;9.282;2023-03-11T13:46:16;93765.13;;;14.25;22.74
9855;BME280;4966;48.112;9.282;2023-03-11T13:48:46;93778.66;;;13.97;22.42
9855;BME280;4966;48.112;9.282;2023-03-11T13:53:46;93777.69;;;14.37;22.19
9855;BME280;4966;48.112;9.282;2023-03-11T13:56:22;93779.28;;;13.76;23.13
9855;BME280;4966;48.112;9.282;2023-03-11T13:58:49;93782.13;;;14.56;22.91
9855;BME280;4966;48.112;9.282;2023-03-11T14:01:16;93790.53;;;14.22;21.93
9855;BME280;4966;48.112;9.282;2023-03-11T14:03:45;93790.56;;;13.67;23.28
9855;BME280;4966;48.112;9.282;2023-03-11T14:06:13;93785.91;;;12.86;22.96
9855;BME280;4966;48.112;9.282;2023-03-11T14:08:39;93785.69;;;12.04;23.39
9855;BME280;4966;48.112;9.282;2023-03-11T14:13:46;93785.09;;;11.64;24.10
9855;BME280;4966;48.112;9.282;2023-03-11T14:16:29;93787.25;;;11.78;24.19
9855;BME280;4966;48.112;9.282;2023-03-11T14:19:04;93779.66;;;12.85;22.64
9855;BME280;4966;48.112;9.282;2023-03-11T14:21:33;93793.97;;;14.12;21.58
9855;BME280;4966;48.112;9.282;2023-03-11T14:24:01;93779.53;;;15.14;20.20
9855;BME280;4966;48.112;9.282;2023-03-11T14:26:29;93781.59;;;14.33;21.92
9855;BME280;4966;48.112;9.282;2023-03-11T14:28:57;93770.84;;;14.83;21.17
9855;BME280;4966;48.112;9.282;2023-03-11T14:33:57;93778.63;;;18.31;16.21
9855;BME280;4966;48.112;9.282;2023-03-11T14:36:28;93778.16;;;19.08;16.45
9855;BME280;4966;48.112;9.282;2023-03-11T14:38:53;93777.22;;;21.76;14.88
9855;BME280;4966;48.112;9.282;2023-03-11T14:41:19;93769.94;;;23.06;13.12
9855;BME280;4966;48.112;9.282;2023-03-11T14:43:48;93782.63;;;21.11;16.16
9855;BME280;4966;48.112;9.282;2023-03-11T14:46:22;93790.00;;;20.57;17.56
9855;BME280;4966;48.112;9.282;2023-03-11T14:48:49;93783.03;;;21.82;16.70
9855;BME280;4966;48.112;9.282;2023-03-11T14:51:24;93774.84;;;22.57;15.57
9855;BME280;4966;48.112;9.282;2023-03-11T14:56:29;93768.94;;;22.84;16.00
9855;BME280;4966;48.112;9.282;2023-03-11T14:59:09;93766.13;;;22.71;15.39
9855;BME280;4966;48.112;9.282;2023-03-11T15:01:38;93775.09;;;20.51;15.71
9855;BME280;4966;48.112;9.282;2023-03-11T15:06:52;93785.19;;;19.40;16.96
9855;BME280;4966;48.112;9.282;2023-03-11T15:09:19;93780.09;;;19.39;18.17
9855;BME280;4966;48.112;9.282;2023-03-11T15:11:56;93780.78;;;17.68;20.23
9855;BME280;4966;48.112;9.282;2023-03-11T15:16:49;93801.78;;;13.55;24.15
9855;BME280;4966;48.112;9.282;2023-03-11T15:21:53;93795.16;;;11.37;27.38
9855;BME280;4966;48.112;9.282;2023-03-11T15:24:27;93802.13;;;10.89;27.47
9855;BME280;4966;48.112;9.282;2023-03-11T15:27:00;93816.06;;;10.64;28.29
9855;BME280;4966;48.112;9.282;2023-03-11T15:29:27;93806.84;;;10.30;29.79
9855;BME280;4966;48.112;9.282;2023-03-11T15:31:53;93817.28;;;10.12;30.32
9855;BME280;4966;48.112;9.282;2023-03-11T15:34:23;93819.09;;;9.88;31.23